sensor_id;sensor_type;location;lat;lon;timestamp;pressure;altitude;pressure_sealevel;temperature;humidity
77975;BME280;67164;51.202;0.278;2023-08-31T00:01:27;100715.89;;;22.80;44.12
77975;BME280;67164;51.202;0.278;2023-08-31T00:03:53;100715.23;;;23.09;44.08
77975;BME280;67164;51.202;0.278;2023-08-31T00:06:19;100717.87;;;23.36;43.91
77975;BME280;67164;51.202;0.278;2023-08-31T00:08:45;100720.67;;;23.32;44.09
77975;BME280;67164;51.202;0.278;2023-08-31T00:11:10;100719.81;;;22.99;44.23
77975;BME280;67164;51.202;0.278;2023-08-31T00:13:36;100714.57;;;23.19;44.20
77975;BME280;67164;51.202;0.278;2023-08-31T00:16:02;100713.51;;;23.01;44.30
77975;BME280;67164;51.202;0.278;2023-08-31T00:18:28;100713.12;;;22.58;44.42
77975;BME280;67164;51.202;0.278;2023-08-31T00:20:54;100715.34;;;22.80;44.47
77975;BME280;67164;51.202;0.278;2023-08-31T00:23:19;100720.41;;;22.97;44.14
77975;BME280;67164;51.202;0.278;2023-08-31T00:25:46;100719.12;;;23.09;44.28
77975;BME280;67164;51.202;0.278;2023-08-31T00:28:16;100717.07;;;22.87;44.19
77975;BME280;67164;51.202;0.278;2023-08-31T00:30:42;100711.01;;;23.01;44.29
77975;BME280;67164;51.202;0.278;2023-08-31T00:33:03;100708.39;;;23.09;44.11
77975;BME280;67164;51.202;0.278;2023-08-31T00:35:28;100704.04;;;23.05;44.21
77975;BME280;67164;51.202;0.278;2023-08-31T00:37:55;100701.41;;;22.87;44.00
77975;BME280;67164;51.202;0.278;2023-08-31T00:40:20;100703.21;;;22.83;43.84
77975;BME280;67164;51.202;0.278;2023-08-31T00:42:51;100698.15;;;23.09;44.09
77975;BME280;67164;51.202;0.278;2023-08-31T00:45:11;100698.68;;;23.21;43.98
77975;BME280;67164;51.202;0.278;2023-08-31T00:47:37;100693.72;;;22.98;44.27
77975;BME280;67164;51.202;0.278;2023-08-31T00:50:05;100690.39;;;22.61;44.40
77975;BME280;67164;51.202;0.278;2023-08-31T00:52:29;100690.05;;;22.94;44.33
77975;BME280;67164;51.202;0.278;2023-08-31T00:54:55;100692.56;;;23.01;44.26
77975;BME280;67164;51.202;0.278;2023-08-31T00:57:20;100696.99;;;22.84;44.01
77975;BME280;67164;51.202;0.278;2023-08-31T00:59:46;100700.49;;;23.10;44.12
77975;BME280;67164;51.202;0.278;2023-08-31T01:02:19;100703.34;;;22.98;44.19
77975;BME280;67164;51.202;0.278;2023-08-31T01:04:45;100698.50;;;23.06;44.06
77975;BME280;67164;51.202;0.278;2023-08-31T01:07:11;100696.63;;;22.94;43.91
77975;BME280;67164;51.202;0.278;2023-08-31T01:09:36;100695.94;;;23.09;44.11
77975;BME280;67164;51.202;0.278;2023-08-31T01:11:59;100695.82;;;22.98;44.12
77975;BME280;67164;51.202;0.278;2023-08-31T01:14:27;100701.16;;;22.39;44.22
77975;BME280;67164;51.202;0.278;2023-08-31T01:16:49;100702.09;;;22.89;44.12
77975;BME280;67164;51.202;0.278;2023-08-31T01:19:22;100698.35;;;22.51;44.04
77975;BME280;67164;51.202;0.278;2023-08-31T01:21:40;100701.70;;;23.11;43.94
77975;BME280;67164;51.202;0.278;2023-08-31T01:24:06;100699.68;;;22.78;44.01
77975;BME280;67164;51.202;0.278;2023-08-31T01:26:30;100692.55;;;22.49;44.05
77975;BME280;67164;51.202;0.278;2023-08-31T01:28:56;100689.92;;;22.83;44.25
77975;BME280;67164;51.202;0.278;2023-08-31T01:31:22;100691.43;;;22.40;44.22
77975;BME280;67164;51.202;0.278;2023-08-31T01:33:48;100691.92;;;22.35;44.29
77975;BME280;67164;51.202;0.278;2023-08-31T01:36:21;100693.01;;;22.41;44.46
77975;BME280;67164;51.202;0.278;2023-08-31T01:38:43;100694.07;;;22.34;44.25
77975;BME280;67164;51.202;0.278;2023-08-31T01:41:07;100692.49;;;22.59;44.68
77975;BME280;67164;51.202;0.278;2023-08-31T01:43:31;100690.22;;;22.21;44.54
77975;BME280;67164;51.202;0.278;2023-08-31T01:45:57;100690.03;;;22.45;44.55
77975;BME280;67164;51.202;0.278;2023-08-31T01:48:22;100684.29;;;22.34;44.59
77975;BME280;67164;51.202;0.278;2023-08-31T01:50:48;100683.06;;;22.59;44.49
77975;BME280;67164;51.202;0.278;2023-08-31T01:53:14;100688.65;;;22.67;44.48
77975;BME280;67164;51.202;0.278;2023-08-31T01:55:40;100690.68;;;22.91;44.20
77975;BME280;67164;51.202;0.278;2023-08-31T01:58:06;100686.68;;;22.83;44.29
77975;BME280;67164;51.202;0.278;2023-08-31T02:00:31;100682.74;;;22.50;44.77
77975;BME280;67164;51.202;0.278;2023-08-31T02:02:57;100687.23;;;22.94;44.03
77975;BME280;67164;51.202;0.278;2023-08-31T02:05:23;100689.82;;;22.73;44.35
77975;BME280;67164;51.202;0.278;2023-08-31T02:07:49;100692.72;;;22.68;44.38
77975;BME280;67164;51.202;0.278;2023-08-31T02:10:15;100694.43;;;22.70;44.43
77975;BME280;67164;51.202;0.278;2023-08-31T02:12:40;100695.29;;;22.42;44.96
77975;BME280;67164;51.202;0.278;2023-08-31T02:15:07;100687.84;;;22.59;44.29
77975;BME280;67164;51.202;0.278;2023-08-31T02:17:32;100685.92;;;22.56;44.51
77975;BME280;67164;51.202;0.278;2023-08-31T02:19:58;100684.12;;;22.57;44.57
77975;BME280;67164;51.202;0.278;2023-08-31T02:22:23;100681.45;;;22.63;44.43
77975;BME280;67164;51.202;0.278;2023-08-31T02:24:49;100678.71;;;22.65;44.49
77975;BME280;67164;51.202;0.278;2023-08-31T02:27:15;100679.82;;;22.54;44.59
77975;BME280;67164;51.202;0.278;2023-08-31T02:29:41;100690.41;;;22.19;44.78
77975;BME280;67164;51.202;0.278;2023-08-31T02:32:07;100692.45;;;22.43;44.83
77975;BME280;67164;51.202;0.278;2023-08-31T02:34:32;100686.45;;;22.58;44.64
77975;BME280;67164;51.202;0.278;2023-08-31T02:36:58;100686.20;;;22.26;45.04
77975;BME280;67164;51.202;0.278;2023-08-31T02:39:24;100685.63;;;22.51;44.73
77975;BME280;67164;51.202;0.278;2023-08-31T02:41:50;100686.70;;;22.38;44.89
77975;BME280;67164;51.202;0.278;2023-08-31T02:44:16;100687.67;;;22.23;44.65
77975;BME280;67164;51.202;0.278;2023-08-31T02:46:42;100688.12;;;22.42;44.82
77975;BME280;67164;51.202;0.278;2023-08-31T02:49:07;100681.74;;;22.46;44.44
77975;BME280;67164;51.202;0.278;2023-08-31T02:51:33;100682.70;;;22.45;44.68
77975;BME280;67164;51.202;0.278;2023-08-31T02:53:59;100686.95;;;22.59;44.61
77975;BME280;67164;51.202;0.278;2023-08-31T02:56:25;100684.01;;;22.53;44.55
77975;BME280;67164;51.202;0.278;2023-08-31T02:58:51;100683.16;;;22.16;44.81
77975;BME280;67164;51.202;0.278;2023-08-31T03:01:16;100681.69;;;22.48;44.51
77975;BME280;67164;51.202;0.278;2023-08-31T03:03:43;100683.80;;;22.35;44.81
77975;BME280;67164;51.202;0.278;2023-08-31T03:06:08;100687.03;;;22.47;44.60
77975;BME280;67164;51.202;0.278;2023-08-31T03:08:34;100691.17;;;22.53;44.58
77975;BME280;67164;51.202;0.278;2023-08-31T03:11:05;100689.84;;;22.63;44.49
77975;BME280;67164;51.202;0.278;2023-08-31T03:13:25;100690.46;;;22.50;44.54
77975;BME280;67164;51.202;0.278;2023-08-31T03:15:51;100687.38;;;22.54;44.62
77975;BME280;67164;51.202;0.278;2023-08-31T03:18:17;100683.21;;;22.47;44.58
77975;BME280;67164;51.202;0.278;2023-08-31T03:20:43;100676.53;;;22.32;44.57
77975;BME280;67164;51.202;0.278;2023-08-31T03:23:08;100671.09;;;22.29;44.87
77975;BME280;67164;51.202;0.278;2023-08-31T03:25:34;100670.57;;;22.46;44.73
77975;BME280;67164;51.202;0.278;2023-08-31T03:28:00;100676.37;;;22.37;44.82
77975;BME280;67164;51.202;0.278;2023-08-31T03:30:25;100677.59;;;22.57;44.95
77975;BME280;67164;51.202;0.278;2023-08-31T03:32:51;100677.59;;;22.66;44.33
77975;BME280;67164;51.202;0.278;2023-08-31T03:35:17;100678.54;;;22.38;44.47
77975;BME280;67164;51.202;0.278;2023-08-31T03:37:43;100677.57;;;22.48;44.65
77975;BME280;67164;51.202;0.278;2023-08-31T03:40:09;100675.09;;;22.22;44.54
77975;BME280;67164;51.202;0.278;2023-08-31T03:42:34;100676.65;;;22.61;44.51
77975;BME280;67164;51.202;0.278;2023-08-31T03:45:00;100677.43;;;22.47;44.65
77975;BME280;67164;51.202;0.278;2023-08-31T03:47:26;100675.56;;;22.31;44.69
77975;BME280;67164;51.202;0.278;2023-08-31T03:49:52;100675.82;;;22.49;44.40
77975;BME280;67164;51.202;0.278;2023-08-31T03:52:17;100681.24;;;22.03;44.79
77975;BME280;67164;51.202;0.278;2023-08-31T03:54:43;100680.00;;;22.25;44.67
77975;BME280;67164;51.202;0.278;2023-08-31T03:57:09;100680.72;;;22.47;44.37
77975;BME280;67164;51.202;0.278;2023-08-31T03:59:35;100679.01;;;22.59;44.14
77975;BME280;67164;51.202;0.278;2023-08-31T04:02:01;100687.30;;;22.34;44.51
77975;BME280;67164;51.202;0.278;2023-08-31T04:04:26;100687.18;;;22.25;44.62
77975;BME280;67164;51.202;0.278;2023-08-31T04:06:52;100688.17;;;22.44;44.52
77975;BME280;67164;51.202;0.278;2023-08-31T04:09:18;100688.24;;;22.19;44.42
77975;BME280;67164;51.202;0.278;2023-08-31T04:11:44;100691.79;;;22.41;44.49
77975;BME280;67164;51.202;0.278;2023-08-31T04:14:10;100689.74;;;22.41;44.42
77975;BME280;67164;51.202;0.278;2023-08-31T04:16:35;100686.63;;;22.08;44.47
77975;BME280;67164;51.202;0.278;2023-08-31T04:19:01;100686.93;;;22.33;44.43
77975;BME280;67164;51.202;0.278;2023-08-31T04:21:27;100692.78;;;22.38;44.34
77975;BME280;67164;51.202;0.278;2023-08-31T04:23:53;100689.99;;;22.05;44.76
77975;BME280;67164;51.202;0.278;2023-08-31T04:26:29;100689.19;;;22.25;44.38
77975;BME280;67164;51.202;0.278;2023-08-31T04:28:44;100686.86;;;22.41;44.29
77975;BME280;67164;51.202;0.278;2023-08-31T04:31:10;100677.97;;;22.10;44.70
77975;BME280;67164;51.202;0.278;2023-08-31T04:33:37;100677.37;;;22.21;44.49
77975;BME280;67164;51.202;0.278;2023-08-31T04:36:02;100677.91;;;22.33;44.51
77975;BME280;67164;51.202;0.278;2023-08-31T04:38:27;100678.82;;;22.50;44.21
77975;BME280;67164;51.202;0.278;2023-08-31T04:40:53;100680.71;;;22.48;44.23
77975;BME280;67164;51.202;0.278;2023-08-31T04:43:19;100681.51;;;22.41;44.28
77975;BME280;67164;51.202;0.278;2023-08-31T04:45:44;100685.02;;;22.29;44.40
77975;BME280;67164;51.202;0.278;2023-08-31T04:48:10;100689.69;;;22.38;44.28
77975;BME280;67164;51.202;0.278;2023-08-31T04:50:36;100699.20;;;22.24;44.50
77975;BME280;67164;51.202;0.278;2023-08-31T04:53:02;100698.84;;;22.37;44.40
77975;BME280;67164;51.202;0.278;2023-08-31T04:55:28;100694.71;;;22.48;44.19
77975;BME280;67164;51.202;0.278;2023-08-31T04:57:54;100697.06;;;22.32;44.38
77975;BME280;67164;51.202;0.278;2023-08-31T05:00:19;100700.80;;;22.24;44.40
77975;BME280;67164;51.202;0.278;2023-08-31T05:02:45;100704.00;;;22.28;44.32
77975;BME280;67164;51.202;0.278;2023-08-31T05:05:11;100704.93;;;22.27;44.44
77975;BME280;67164;51.202;0.278;2023-08-31T05:07:37;100708.70;;;22.37;44.28
77975;BME280;67164;51.202;0.278;2023-08-31T05:10:04;100710.50;;;22.34;44.20
77975;BME280;67164;51.202;0.278;2023-08-31T05:12:28;100710.44;;;22.19;44.45
77975;BME280;67164;51.202;0.278;2023-08-31T05:14:54;100707.67;;;22.24;44.47
77975;BME280;67164;51.202;0.278;2023-08-31T05:17:21;100703.96;;;22.12;44.35
77975;BME280;67164;51.202;0.278;2023-08-31T05:19:46;100702.74;;;22.30;44.32
77975;BME280;67164;51.202;0.278;2023-08-31T05:22:12;100706.41;;;22.27;44.27
77975;BME280;67164;51.202;0.278;2023-08-31T05:24:38;100711.46;;;22.53;44.09
77975;BME280;67164;51.202;0.278;2023-08-31T05:27:04;100709.13;;;22.35;44.25
77975;BME280;67164;51.202;0.278;2023-08-31T05:29:30;100709.62;;;22.19;44.56
77975;BME280;67164;51.202;0.278;2023-08-31T05:31:55;100714.87;;;22.37;44.26
77975;BME280;67164;51.202;0.278;2023-08-31T05:34:21;100717.63;;;22.31;44.39
77975;BME280;67164;51.202;0.278;2023-08-31T05:36:46;100721.27;;;22.74;44.06
77975;BME280;67164;51.202;0.278;2023-08-31T05:39:12;100720.45;;;22.00;44.60
77975;BME280;67164;51.202;0.278;2023-08-31T05:41:40;100722.78;;;22.53;44.15
77975;BME280;67164;51.202;0.278;2023-08-31T05:44:05;100725.71;;;22.32;44.24
77975;BME280;67164;51.202;0.278;2023-08-31T05:46:29;100724.03;;;22.22;44.41
77975;BME280;67164;51.202;0.278;2023-08-31T05:48:55;100727.28;;;22.23;44.44
77975;BME280;67164;51.202;0.278;2023-08-31T05:51:21;100730.62;;;22.17;44.44
77975;BME280;67164;51.202;0.278;2023-08-31T05:53:46;100735.02;;;21.79;44.59
77975;BME280;67164;51.202;0.278;2023-08-31T05:56:12;100737.66;;;22.04;44.62
77975;BME280;67164;51.202;0.278;2023-08-31T05:58:38;100741.27;;;22.25;44.27
77975;BME280;67164;51.202;0.278;2023-08-31T06:01:04;100735.78;;;22.43;44.20
77975;BME280;67164;51.202;0.278;2023-08-31T06:03:29;100737.18;;;22.24;44.36
77975;BME280;67164;51.202;0.278;2023-08-31T06:05:56;100739.08;;;22.03;44.68
77975;BME280;67164;51.202;0.278;2023-08-31T06:08:21;100740.14;;;22.12;44.56
77975;BME280;67164;51.202;0.278;2023-08-31T06:10:47;100736.67;;;22.09;44.58
77975;BME280;67164;51.202;0.278;2023-08-31T06:13:12;100735.36;;;22.08;44.50
77975;BME280;67164;51.202;0.278;2023-08-31T06:15:39;100737.49;;;22.20;44.30
77975;BME280;67164;51.202;0.278;2023-08-31T06:18:05;100743.42;;;22.18;44.46
77975;BME280;67164;51.202;0.278;2023-08-31T06:20:30;100748.45;;;22.31;44.36
77975;BME280;67164;51.202;0.278;2023-08-31T06:22:56;100743.67;;;21.99;44.68
77975;BME280;67164;51.202;0.278;2023-08-31T06:25:21;100739.92;;;21.91;44.48
77975;BME280;67164;51.202;0.278;2023-08-31T06:27:47;100734.43;;;22.18;44.55
77975;BME280;67164;51.202;0.278;2023-08-31T06:30:13;100737.93;;;22.15;44.38
77975;BME280;67164;51.202;0.278;2023-08-31T06:32:39;100739.62;;;22.33;44.50
77975;BME280;67164;51.202;0.278;2023-08-31T06:35:06;100740.48;;;22.14;44.46
77975;BME280;67164;51.202;0.278;2023-08-31T06:37:30;100745.65;;;22.26;44.46
77975;BME280;67164;51.202;0.278;2023-08-31T06:39:56;100743.85;;;22.09;44.50
77975;BME280;67164;51.202;0.278;2023-08-31T06:42:22;100742.16;;;22.12;44.47
77975;BME280;67164;51.202;0.278;2023-08-31T06:44:48;100741.14;;;21.97;44.65
77975;BME280;67164;51.202;0.278;2023-08-31T06:47:14;100743.94;;;22.06;44.63
77975;BME280;67164;51.202;0.278;2023-08-31T06:49:39;100750.46;;;21.77;45.08
77975;BME280;67164;51.202;0.278;2023-08-31T06:52:06;100753.57;;;21.81;44.99
77975;BME280;67164;51.202;0.278;2023-08-31T06:54:31;100753.61;;;22.07;44.70
77975;BME280;67164;51.202;0.278;2023-08-31T06:56:57;100752.57;;;22.23;44.63
77975;BME280;67164;51.202;0.278;2023-08-31T06:59:23;100752.47;;;22.01;44.67
77975;BME280;67164;51.202;0.278;2023-08-31T07:01:48;100747.02;;;22.17;44.35
77975;BME280;67164;51.202;0.278;2023-08-31T07:04:14;100744.44;;;22.01;44.76
77975;BME280;67164;51.202;0.278;2023-08-31T07:06:40;100748.65;;;22.14;44.57
77975;BME280;67164;51.202;0.278;2023-08-31T07:09:06;100749.28;;;22.09;44.69
77975;BME280;67164;51.202;0.278;2023-08-31T07:11:32;100747.34;;;21.95;44.90
77975;BME280;67164;51.202;0.278;2023-08-31T07:13:57;100746.17;;;21.94;44.87
77975;BME280;67164;51.202;0.278;2023-08-31T07:16:23;100750.02;;;21.81;44.96
77975;BME280;67164;51.202;0.278;2023-08-31T07:18:49;100749.17;;;22.09;45.08
77975;BME280;67164;51.202;0.278;2023-08-31T07:21:15;100750.94;;;22.05;44.78
77975;BME280;67164;51.202;0.278;2023-08-31T07:23:41;100749.29;;;22.04;44.81
77975;BME280;67164;51.202;0.278;2023-08-31T07:26:06;100751.54;;;21.99;44.94
77975;BME280;67164;51.202;0.278;2023-08-31T07:28:32;100750.38;;;21.78;44.78
77975;BME280;67164;51.202;0.278;2023-08-31T07:31:02;100753.75;;;21.94;44.94
77975;BME280;67164;51.202;0.278;2023-08-31T07:33:24;100752.59;;;22.08;44.83
77975;BME280;67164;51.202;0.278;2023-08-31T07:35:50;100757.68;;;21.85;45.17
77975;BME280;67164;51.202;0.278;2023-08-31T07:38:15;100754.95;;;21.94;44.90
77975;BME280;67164;51.202;0.278;2023-08-31T07:40:41;100758.53;;;21.96;44.91
77975;BME280;67164;51.202;0.278;2023-08-31T07:43:07;100759.59;;;21.77;44.91
77975;BME280;67164;51.202;0.278;2023-08-31T07:45:33;100758.17;;;22.07;44.89
77975;BME280;67164;51.202;0.278;2023-08-31T07:47:58;100759.02;;;22.02;44.92
77975;BME280;67164;51.202;0.278;2023-08-31T07:50:24;100760.30;;;22.13;44.83
77975;BME280;67164;51.202;0.278;2023-08-31T07:52:55;100758.03;;;22.33;44.81
77975;BME280;67164;51.202;0.278;2023-08-31T07:55:17;100756.56;;;21.96;45.01
77975;BME280;67164;51.202;0.278;2023-08-31T07:57:41;100751.63;;;22.03;45.02
77975;BME280;67164;51.202;0.278;2023-08-31T08:00:08;100750.98;;;21.87;44.86
77975;BME280;67164;51.202;0.278;2023-08-31T08:02:33;100753.87;;;22.11;44.79
77975;BME280;67164;51.202;0.278;2023-08-31T08:04:59;100753.93;;;21.87;45.19
77975;BME280;67164;51.202;0.278;2023-08-31T08:07:25;100750.68;;;22.29;44.55
77975;BME280;67164;51.202;0.278;2023-08-31T08:09:55;100744.47;;;21.96;45.12
77975;BME280;67164;51.202;0.278;2023-08-31T08:12:16;100745.42;;;21.90;45.12
77975;BME280;67164;51.202;0.278;2023-08-31T08:14:42;100742.75;;;22.14;44.88
77975;BME280;67164;51.202;0.278;2023-08-31T08:17:08;100742.63;;;21.90;45.16
77975;BME280;67164;51.202;0.278;2023-08-31T08:19:34;100743.35;;;21.95;45.18
77975;BME280;67164;51.202;0.278;2023-08-31T08:21:59;100746.31;;;22.09;45.39
77975;BME280;67164;51.202;0.278;2023-08-31T08:24:25;100749.65;;;21.91;45.22
77975;BME280;67164;51.202;0.278;2023-08-31T08:26:51;100752.04;;;21.83;45.41
77975;BME280;67164;51.202;0.278;2023-08-31T08:29:17;100746.61;;;22.04;45.05
77975;BME280;67164;51.202;0.278;2023-08-31T08:31:43;100749.75;;;21.80;45.44
77975;BME280;67164;51.202;0.278;2023-08-31T08:34:08;100751.43;;;21.93;45.30
77975;BME280;67164;51.202;0.278;2023-08-31T08:36:35;100752.04;;;21.93;45.26
77975;BME280;67164;51.202;0.278;2023-08-31T08:39:00;100752.66;;;22.22;44.92
77975;BME280;67164;51.202;0.278;2023-08-31T08:41:29;100753.58;;;21.97;45.22
77975;BME280;67164;51.202;0.278;2023-08-31T08:43:52;100751.24;;;22.30;45.14
77975;BME280;67164;51.202;0.278;2023-08-31T08:46:17;100752.78;;;22.24;44.82
77975;BME280;67164;51.202;0.278;2023-08-31T08:48:44;100748.01;;;22.09;45.11
77975;BME280;67164;51.202;0.278;2023-08-31T08:51:10;100752.38;;;22.30;44.89
77975;BME280;67164;51.202;0.278;2023-08-31T08:53:35;100753.97;;;22.23;44.90
77975;BME280;67164;51.202;0.278;2023-08-31T08:56:00;100755.31;;;21.81;45.52
77975;BME280;67164;51.202;0.278;2023-08-31T08:58:26;100754.45;;;21.86;45.40
77975;BME280;67164;51.202;0.278;2023-08-31T09:00:54;100750.89;;;22.03;45.16
77975;BME280;67164;51.202;0.278;2023-08-31T09:03:18;100753.80;;;22.06;45.26
77975;BME280;67164;51.202;0.278;2023-08-31T09:05:49;100755.88;;;21.90;45.49
77975;BME280;67164;51.202;0.278;2023-08-31T09:08:14;100755.26;;;21.82;45.32
77975;BME280;67164;51.202;0.278;2023-08-31T09:10:36;100755.13;;;22.09;45.13
77975;BME280;67164;51.202;0.278;2023-08-31T09:13:04;100757.06;;;21.99;45.36
77975;BME280;67164;51.202;0.278;2023-08-31T09:15:39;100754.41;;;22.09;45.32
77975;BME280;67164;51.202;0.278;2023-08-31T09:17:53;100751.17;;;22.00;45.26
77975;BME280;67164;51.202;0.278;2023-08-31T09:20:19;100751.79;;;21.93;45.40
77975;BME280;67164;51.202;0.278;2023-08-31T09:22:44;100747.77;;;21.73;45.39
77975;BME280;67164;51.202;0.278;2023-08-31T09:25:10;100746.31;;;22.14;45.29
77975;BME280;67164;51.202;0.278;2023-08-31T09:27:37;100743.74;;;21.93;45.51
77975;BME280;67164;51.202;0.278;2023-08-31T09:30:07;100743.80;;;22.33;45.30
77975;BME280;67164;51.202;0.278;2023-08-31T09:32:27;100741.56;;;21.92;45.58
77975;BME280;67164;51.202;0.278;2023-08-31T09:34:53;100743.31;;;21.77;45.75
77975;BME280;67164;51.202;0.278;2023-08-31T09:37:19;100739.52;;;21.81;45.71
77975;BME280;67164;51.202;0.278;2023-08-31T09:39:45;100736.77;;;22.04;45.44
77975;BME280;67164;51.202;0.278;2023-08-31T09:42:10;100735.96;;;22.10;45.41
77975;BME280;67164;51.202;0.278;2023-08-31T09:44:40;100734.60;;;22.14;45.59
77975;BME280;67164;51.202;0.278;2023-08-31T09:47:02;100736.23;;;21.92;45.72
77975;BME280;67164;51.202;0.278;2023-08-31T09:49:28;100735.80;;;22.57;45.53
77975;BME280;67164;51.202;0.278;2023-08-31T09:51:54;100735.80;;;21.67;45.66
77975;BME280;67164;51.202;0.278;2023-08-31T09:54:20;100733.49;;;22.14;45.34
77975;BME280;67164;51.202;0.278;2023-08-31T09:56:47;100732.36;;;22.27;45.56
77975;BME280;67164;51.202;0.278;2023-08-31T09:59:21;100733.11;;;22.12;45.43
77975;BME280;67164;51.202;0.278;2023-08-31T10:01:37;100729.86;;;22.21;45.62
77975;BME280;67164;51.202;0.278;2023-08-31T10:04:03;100731.82;;;21.95;45.67
77975;BME280;67164;51.202;0.278;2023-08-31T10:06:29;100734.14;;;22.10;45.51
77975;BME280;67164;51.202;0.278;2023-08-31T10:08:54;100734.93;;;21.94;45.77
77975;BME280;67164;51.202;0.278;2023-08-31T10:11:21;100736.19;;;22.22;45.37
77975;BME280;67164;51.202;0.278;2023-08-31T10:13:47;100730.19;;;21.96;45.75
77975;BME280;67164;51.202;0.278;2023-08-31T10:16:12;100730.66;;;22.31;45.63
77975;BME280;67164;51.202;0.278;2023-08-31T10:18:37;100727.63;;;21.96;45.75
77975;BME280;67164;51.202;0.278;2023-08-31T10:21:04;100731.04;;;22.04;45.73
77975;BME280;67164;51.202;0.278;2023-08-31T10:23:29;100735.49;;;22.30;45.40
77975;BME280;67164;51.202;0.278;2023-08-31T10:26:01;100732.29;;;22.15;45.51
77975;BME280;67164;51.202;0.278;2023-08-31T10:28:21;100729.66;;;22.14;45.61
77975;BME280;67164;51.202;0.278;2023-08-31T10:33:21;100722.24;;;22.13;45.57
77975;BME280;67164;51.202;0.278;2023-08-31T10:35:41;100720.41;;;22.14;45.58
77975;BME280;67164;51.202;0.278;2023-08-31T10:38:15;100722.22;;;22.30;45.76
77975;BME280;67164;51.202;0.278;2023-08-31T10:40:32;100719.52;;;22.19;45.60
77975;BME280;67164;51.202;0.278;2023-08-31T10:45:21;100722.40;;;22.32;45.36
77975;BME280;67164;51.202;0.278;2023-08-31T10:47:47;100720.52;;;22.41;45.42
77975;BME280;67164;51.202;0.278;2023-08-31T10:50:17;100719.23;;;22.44;45.09
77975;BME280;67164;51.202;0.278;2023-08-31T10:52:44;100721.08;;;22.69;45.03
77975;BME280;67164;51.202;0.278;2023-08-31T10:55:05;100717.01;;;22.51;45.27
77975;BME280;67164;51.202;0.278;2023-08-31T10:57:30;100718.26;;;22.71;45.13
77975;BME280;67164;51.202;0.278;2023-08-31T10:59:56;100720.51;;;22.60;45.23
77975;BME280;67164;51.202;0.278;2023-08-31T11:02:28;100720.29;;;22.16;45.50
77975;BME280;67164;51.202;0.278;2023-08-31T11:04:53;100719.44;;;22.64;45.40
77975;BME280;67164;51.202;0.278;2023-08-31T11:07:15;100718.57;;;22.58;45.21
77975;BME280;67164;51.202;0.278;2023-08-31T11:09:39;100724.87;;;22.26;45.52
77975;BME280;67164;51.202;0.278;2023-08-31T11:12:06;100726.50;;;22.52;45.46
77975;BME280;67164;51.202;0.278;2023-08-31T11:14:31;100728.95;;;22.70;45.34
77975;BME280;67164;51.202;0.278;2023-08-31T11:17:02;100723.99;;;22.57;45.37
77975;BME280;67164;51.202;0.278;2023-08-31T11:19:22;100716.80;;;22.49;45.56
77975;BME280;67164;51.202;0.278;2023-08-31T11:21:48;100714.31;;;22.57;45.40
77975;BME280;67164;51.202;0.278;2023-08-31T11:24:14;100712.08;;;22.37;45.72
77975;BME280;67164;51.202;0.278;2023-08-31T11:26:39;100716.06;;;22.40;45.83
77975;BME280;67164;51.202;0.278;2023-08-31T11:29:07;100721.10;;;22.58;45.55
77975;BME280;67164;51.202;0.278;2023-08-31T11:31:31;100718.26;;;22.80;45.18
77975;BME280;67164;51.202;0.278;2023-08-31T11:33:57;100715.18;;;22.66;45.38
77975;BME280;67164;51.202;0.278;2023-08-31T11:36:23;100716.24;;;22.74;45.25
77975;BME280;67164;51.202;0.278;2023-08-31T11:38:49;100712.97;;;22.57;45.51
77975;BME280;67164;51.202;0.278;2023-08-31T11:41:14;100711.59;;;22.87;45.20
77975;BME280;67164;51.202;0.278;2023-08-31T11:43:40;100711.00;;;22.77;45.06
77975;BME280;67164;51.202;0.278;2023-08-31T11:46:06;100709.06;;;22.82;44.98
77975;BME280;67164;51.202;0.278;2023-08-31T11:48:32;100708.07;;;22.76;45.34
77975;BME280;67164;51.202;0.278;2023-08-31T11:50:58;100706.76;;;22.62;45.67
77975;BME280;67164;51.202;0.278;2023-08-31T11:53:24;100702.29;;;22.79;45.40
77975;BME280;67164;51.202;0.278;2023-08-31T11:55:50;100702.97;;;22.60;45.34
77975;BME280;67164;51.202;0.278;2023-08-31T11:58:15;100696.80;;;22.72;45.47
77975;BME280;67164;51.202;0.278;2023-08-31T12:00:42;100693.65;;;22.14;45.59
77975;BME280;67164;51.202;0.278;2023-08-31T12:03:11;100695.63;;;22.50;45.13
77975;BME280;67164;51.202;0.278;2023-08-31T12:05:45;100696.30;;;23.00;45.11
77975;BME280;67164;51.202;0.278;2023-08-31T12:07:58;100697.65;;;22.65;45.64
77975;BME280;67164;51.202;0.278;2023-08-31T12:10:25;100698.00;;;22.36;45.43
77975;BME280;67164;51.202;0.278;2023-08-31T12:12:49;100700.87;;;22.81;45.51
77975;BME280;67164;51.202;0.278;2023-08-31T12:15:16;100705.16;;;22.61;45.49
77975;BME280;67164;51.202;0.278;2023-08-31T12:17:41;100703.07;;;22.97;45.37
77975;BME280;67164;51.202;0.278;2023-08-31T12:20:07;100703.50;;;22.10;45.87
77975;BME280;67164;51.202;0.278;2023-08-31T12:22:33;100703.25;;;22.82;45.42
77975;BME280;67164;51.202;0.278;2023-08-31T12:24:58;100704.79;;;22.93;45.37
77975;BME280;67164;51.202;0.278;2023-08-31T12:27:24;100700.54;;;22.43;45.77
77975;BME280;67164;51.202;0.278;2023-08-31T12:29:50;100703.87;;;22.73;45.71
77975;BME280;67164;51.202;0.278;2023-08-31T12:32:16;100707.44;;;22.87;45.59
77975;BME280;67164;51.202;0.278;2023-08-31T12:34:42;100703.52;;;22.93;45.35
77975;BME280;67164;51.202;0.278;2023-08-31T12:37:07;100699.68;;;22.67;45.48
77975;BME280;67164;51.202;0.278;2023-08-31T12:39:39;100699.12;;;23.03;45.26
77975;BME280;67164;51.202;0.278;2023-08-31T12:41:59;100699.88;;;23.03;44.96
77975;BME280;67164;51.202;0.278;2023-08-31T12:44:25;100695.66;;;22.90;45.42
77975;BME280;67164;51.202;0.278;2023-08-31T12:46:51;100695.11;;;22.97;45.46